No particular awareness of the weather is required.    There are no Weather-warnings


Meteo18 Weather Cam more information Meteo18 Weather Cam


Thunder radar more information blitzortung!


Rain radar more information rain snow radar


Visit our other weather sites:

Template documentation
and downloads

And another site



Weather Underground History page Text

Daily Summary for February 28, 2018 Units:  English    Metric   Both
« Previous Day
Next Day »
Daily Weekly Monthly Yearly Custom
  High: Low: Average:
Temperature: TemperatureC °F -10.9 °F -5.3 °F
Dew Point: DewpointC °F -13.7 °F -9.9 °F
Humidity: Humidity % 47 % 71 %
Wind Speed: WindSpeedKMH mph 0.0 mph 8.2 mph
Wind Gust: WindSpeedGustKMH mph - -
Wind:- - ENE
Pressure: PressurehPa in 997.9 in -
Precipitation: 0.0 in    
Historical Graphs
 
 
Tabular Data for February 28, 2018
Time Temperature Dew Point Pressure Wind Wind Speed Wind Gust Humidity Rainfall Rate (Hourly)
TemperatureC °F DewpointC °F PressurehPa in Calm     Humidity % HourlyPrecipMM in
00:00 -7.5 °F -11.8 °F 1014.4 in ENE 3.2 mph 6.4 mph 71 % 0.0 in
00:06 -7.6 °F -11.8 °F 1014.4 in NE 6.4 mph 6.4 mph 72 % 0.0 in
00:12 -7.7 °F -11.9 °F 1014.4 in NE 1.4 mph 4.8 mph 72 % 0.0 in
00:18 -7.7 °F -11.9 °F 1014.4 in NNE 3.2 mph 6.4 mph 72 % 0.0 in
00:24 -7.7 °F -11.7 °F 1014.1 in NNE 3.2 mph 4.8 mph 73 % 0.0 in
00:30 -7.8 °F -11.8 °F 1014.1 in NE 4.7 mph 6.4 mph 73 % 0.0 in
00:36 -7.8 °F -11.8 °F 1014.1 in NNE 1.4 mph 8.0 mph 73 % 0.0 in
00:42 -7.9 °F -11.9 °F 1014.1 in NNE 3.2 mph 4.8 mph 73 % 0.0 in
00:48 -8.1 °F -11.9 °F 1013.8 in NE 4.7 mph 6.4 mph 74 % 0.0 in
00:54 -8.1 °F -11.9 °F 1013.8 in North 1.4 mph 3.2 mph 74 % 0.0 in
01:00 -8.2 °F -12.0 °F 1013.8 in NE 1.4 mph 6.4 mph 74 % 0.0 in
01:06 -8.3 °F -11.9 °F 1013.4 in North 1.4 mph 4.8 mph 75 % 0.0 in
01:12 -8.6 °F -12.2 °F 1013.4 in NE 3.2 mph 8.0 mph 75 % 0.0 in
01:18 -8.7 °F -12.3 °F 1013.4 in Calm   3.2 mph 75 % 0.0 in
01:24 -8.8 °F -12.3 °F 1013.4 in Calm   3.2 mph 76 % 0.0 in
01:30 -8.8 °F -12.3 °F 1013.8 in Calm   1.6 mph 76 % 0.0 in
01:36 -8.9 °F -12.4 °F 1013.4 in Calm   3.2 mph 76 % 0.0 in
01:42 -9.0 °F -12.3 °F 1013.4 in Calm   3.2 mph 77 % 0.0 in
01:48 -9.1 °F -12.4 °F 1013.4 in Calm   3.2 mph 77 % 0.0 in
01:54 -9.0 °F -12.3 °F 1013.4 in Calm   3.2 mph 77 % 0.0 in
02:00 -8.9 °F -12.2 °F 1013.4 in NNE 1.4 mph 4.8 mph 77 % 0.0 in
02:06 -8.9 °F -12.2 °F 1013.1 in NE 1.4 mph 6.4 mph 77 % 0.0 in
02:12 -8.8 °F -12.3 °F 1013.1 in NNE 3.2 mph 9.7 mph 76 % 0.0 in
02:18 -8.6 °F -12.2 °F 1013.1 in NE 7.9 mph 9.7 mph 75 % 0.0 in
02:24 -8.6 °F -12.4 °F 1013.1 in NNE 3.2 mph 14.5 mph 74 % 0.0 in
02:30 -8.5 °F -12.5 °F 1013.1 in NE 4.7 mph 9.7 mph 73 % 0.0 in
02:36 -8.4 °F -12.4 °F 1013.1 in NE 3.2 mph 8.0 mph 73 % 0.0 in
02:42 -8.4 °F -12.5 °F 1013.1 in NE 14.5 mph 14.5 mph 72 % 0.0 in
02:48 -8.4 °F -12.5 °F 1012.8 in NNE 1.4 mph 8.0 mph 72 % 0.0 in
02:54 -8.4 °F -12.7 °F 1012.8 in ENE 4.7 mph 17.7 mph 71 % 0.0 in
03:00 -8.5 °F -12.8 °F 1012.8 in NNE 6.4 mph 9.7 mph 71 % 0.0 in
03:06 -8.6 °F -12.9 °F 1012.8 in NNE 3.2 mph 6.4 mph 71 % 0.0 in
03:12 -8.6 °F -12.9 °F 1012.4 in NNE 4.7 mph 4.8 mph 71 % 0.0 in
03:18 -8.7 °F -12.8 °F 1012.4 in NNE 1.4 mph 4.8 mph 72 % 0.0 in
03:24 -8.9 °F -12.9 °F 1012.4 in NNE 4.7 mph 4.8 mph 73 % 0.0 in
03:30 -8.9 °F -12.7 °F 1012.1 in NNW 1.4 mph 3.2 mph 74 % 0.0 in
03:36 -9.1 °F -12.9 °F 1012.4 in NNE 1.4 mph 3.2 mph 74 % 0.0 in
03:42 -9.2 °F -13.0 °F 1012.4 in Calm   1.6 mph 74 % 0.0 in
03:48 -9.2 °F -13.0 °F 1012.1 in Calm   4.8 mph 74 % 0.0 in
03:54 -9.3 °F -12.9 °F 1012.1 in Calm   6.4 mph 75 % 0.0 in
04:00 -9.3 °F -12.9 °F 1012.1 in Calm   4.8 mph 75 % 0.0 in
04:06 -9.4 °F -13.0 °F 1012.1 in Calm   6.4 mph 75 % 0.0 in
04:12 -9.4 °F -13.0 °F 1012.1 in NNW 1.4 mph 4.8 mph 75 % 0.0 in
04:18 -9.4 °F -13.0 °F 1012.1 in Calm   4.8 mph 75 % 0.0 in
04:24 -9.5 °F -13.1 °F 1012.1 in Calm   1.6 mph 75 % 0.0 in
04:30 -9.6 °F -13.2 °F 1012.1 in Calm   1.6 mph 75 % 0.0 in
04:36 -9.7 °F -13.3 °F 1012.1 in Calm   1.6 mph 75 % 0.0 in
04:42 -9.8 °F -13.4 °F 1012.1 in Calm   1.6 mph 75 % 0.0 in
04:48 -9.8 °F -13.2 °F 1012.1 in NW 1.4 mph 1.6 mph 76 % 0.0 in
04:54 -9.8 °F -13.4 °F 1012.1 in Calm   1.6 mph 75 % 0.0 in
05:00 -9.9 °F -13.3 °F 1011.7 in Calm   1.6 mph 76 % 0.0 in
05:06 -9.9 °F -13.3 °F 1011.7 in North 1.4 mph 1.6 mph 76 % 0.0 in
05:12 -10.0 °F -13.4 °F 1011.7 in Calm   1.6 mph 76 % 0.0 in
05:18 -10.1 °F -13.5 °F 1012.1 in Calm   1.6 mph 76 % 0.0 in
05:24 -10.1 °F -13.4 °F 1012.1 in Calm   1.6 mph 77 % 0.0 in
05:30 -10.2 °F -13.5 °F 1011.7 in Calm   1.6 mph 77 % 0.0 in
05:37 -10.2 °F -13.5 °F 1011.7 in Calm   1.6 mph 77 % 0.0 in
05:43 -10.3 °F -13.6 °F 1011.7 in Calm     77 % 0.0 in
05:49 -10.3 °F -13.4 °F 1011.7 in Calm   1.6 mph 78 % 0.0 in
05:55 -10.4 °F -13.5 °F 1011.7 in Calm   1.6 mph 78 % 0.0 in
06:01 -10.6 °F -13.7 °F 1011.7 in Calm     78 % 0.0 in
06:07 -10.6 °F -13.7 °F 1011.7 in Calm   1.6 mph 78 % 0.0 in
06:13 -10.6 °F -13.5 °F 1011.7 in Calm   1.6 mph 79 % 0.0 in
06:19 -10.7 °F -13.6 °F 1011.7 in North 1.4 mph 1.6 mph 79 % 0.0 in
06:25 -10.7 °F -13.6 °F 1011.4 in Calm   3.2 mph 79 % 0.0 in
06:31 -10.8 °F -13.6 °F 1011.4 in NE 1.4 mph 3.2 mph 80 % 0.0 in
06:37 -10.9 °F -13.5 °F 1011.1 in NNW 1.4 mph 3.2 mph 81 % 0.0 in
06:43 -10.8 °F -13.4 °F 1011.4 in Calm   4.8 mph 81 % 0.0 in
06:49 -10.8 °F -13.4 °F 1011.4 in NNE 4.7 mph 6.4 mph 81 % 0.0 in
06:55 -10.6 °F -13.4 °F 1011.1 in NE 9.7 mph 12.9 mph 80 % 0.0 in
07:01 -10.4 °F -13.3 °F 1010.7 in NE 16.3 mph 17.7 mph 79 % 0.0 in
07:07 -10.3 °F -13.2 °F 1010.7 in NNE 3.2 mph 11.3 mph 79 % 0.0 in
07:13 -10.4 °F -13.3 °F 1011.1 in NNE 4.7 mph 14.5 mph 79 % 0.0 in
07:19 -10.4 °F -13.3 °F 1010.7 in NE 6.4 mph 17.7 mph 79 % 0.0 in
07:25 -10.2 °F -13.3 °F 1010.7 in NE 4.7 mph 24.1 mph 78 % 0.0 in
07:31 -10.2 °F -13.3 °F 1010.7 in NNE 13.0 mph 16.1 mph 78 % 0.0 in
07:37 -10.3 °F -13.4 °F 1011.1 in NE 16.3 mph 19.3 mph 78 % 0.0 in
07:43 -10.2 °F -13.3 °F 1010.7 in NE 16.3 mph 19.3 mph 78 % 0.0 in
07:49 -10.2 °F -13.3 °F 1010.7 in ENE 16.3 mph 22.5 mph 78 % 0.0 in
07:55 -10.2 °F -13.3 °F 1010.7 in NE 7.9 mph 17.7 mph 78 % 0.0 in
08:01 -10.2 °F -13.3 °F 1010.7 in NNE 13.0 mph 17.7 mph 78 % 0.0 in
08:07 -10.1 °F -13.2 °F 1010.7 in NE 3.2 mph 17.7 mph 78 % 0.0 in
08:13 -10.1 °F -13.2 °F 1010.7 in ENE 1.4 mph 16.1 mph 78 % 0.0 in
08:19 -10.0 °F -13.1 °F 1011.1 in NE 4.7 mph 19.3 mph 78 % 0.0 in
08:25 -9.8 °F -12.9 °F 1010.7 in NE 9.7 mph 19.3 mph 78 % 0.0 in
08:31 -9.7 °F -13.0 °F 1010.7 in NNE 11.1 mph 20.9 mph 77 % 0.0 in
08:37 -9.6 °F -13.0 °F 1010.7 in NE 7.9 mph 22.5 mph 76 % 0.0 in
08:43 -9.4 °F -12.8 °F 1010.7 in NE 16.3 mph 17.7 mph 76 % 0.0 in
08:49 -9.2 °F -12.6 °F 1010.7 in ENE 6.4 mph 11.3 mph 76 % 0.0 in
08:55 -9.1 °F -12.7 °F 1010.7 in NNE 11.1 mph 11.3 mph 75 % 0.0 in
09:01 -8.9 °F -12.7 °F 1010.4 in NE 9.7 mph 16.1 mph 74 % 0.0 in
09:07 -8.7 °F -12.5 °F 1010.4 in NE 3.2 mph 19.3 mph 74 % 0.0 in
09:13 -8.6 °F -12.4 °F 1010.4 in ENE 3.2 mph 12.9 mph 74 % 0.0 in
09:19 -8.4 °F -12.4 °F 1010.0 in NE 9.7 mph 19.3 mph 73 % 0.0 in
09:25 -8.2 °F -12.2 °F 1010.0 in NE 4.7 mph 14.5 mph 73 % 0.0 in
09:31 -8.1 °F -12.3 °F 1010.0 in NNE 11.1 mph 16.1 mph 72 % 0.0 in
09:37 -8.0 °F -12.3 °F 1010.0 in NE 11.1 mph 17.7 mph 71 % 0.0 in
09:43 -7.9 °F -12.2 °F 1010.0 in East 1.4 mph 11.3 mph 71 % 0.0 in
09:49 -7.6 °F -11.9 °F 1009.7 in ENE 19.5 mph 19.5 mph 71 % 0.0 in
09:55 -7.3 °F -11.8 °F 1009.7 in NE 9.7 mph 16.1 mph 70 % 0.0 in
09:59 -7.2 °F -11.7 °F 1009.7 in ESE 3.2 mph 12.9 mph 70 % 0.0 in
10:01 -7.1 °F -11.8 °F 1009.7 in NE 13.0 mph 20.9 mph 69 % 0.0 in
10:07 -6.8 °F -11.9 °F 1009.4 in NNE 4.7 mph 25.7 mph 67 % 0.0 in
10:13 -6.6 °F -11.9 °F 1009.4 in NE 4.7 mph 20.9 mph 66 % 0.0 in
10:19 -6.2 °F -12.1 °F 1009.0 in East 22.7 mph 22.7 mph 63 % 0.0 in
10:25 -6.2 °F -12.3 °F 1008.7 in East 22.7 mph 25.7 mph 62 % 0.0 in
10:31 -6.3 °F -12.4 °F 1008.7 in ENE 16.3 mph 22.5 mph 62 % 0.0 in
10:37 -6.2 °F -12.3 °F 1008.7 in NE 11.1 mph 22.5 mph 62 % 0.0 in
10:43 -5.9 °F -12.2 °F 1008.4 in ENE 7.9 mph 25.7 mph 61 % 0.0 in
10:49 -5.7 °F -12.0 °F 1008.4 in ENE 7.9 mph 16.1 mph 61 % 0.0 in
10:55 -5.5 °F -12.0 °F 1008.4 in NE 9.7 mph 22.5 mph 60 % 0.0 in
11:01 -5.3 °F -11.8 °F 1008.4 in ENE 6.4 mph 22.5 mph 60 % 0.0 in
11:07 -5.2 °F -12.0 °F 1008.4 in East 9.7 mph 14.5 mph 59 % 0.0 in
11:13 -5.2 °F -11.8 °F 1008.7 in ENE 11.1 mph 19.3 mph 60 % 0.0 in
11:19 -5.2 °F -12.0 °F 1008.7 in NE 17.7 mph 24.1 mph 59 % 0.0 in
11:25 -5.0 °F -11.8 °F 1008.7 in East 16.3 mph 22.5 mph 59 % 0.0 in
11:31 -4.8 °F -11.8 °F 1008.7 in ENE 9.7 mph 22.5 mph 58 % 0.0 in
11:37 -4.7 °F -11.7 °F 1008.7 in ENE 16.3 mph 20.9 mph 58 % 0.0 in
11:43 -4.4 °F -11.6 °F 1008.7 in ENE 4.7 mph 16.1 mph 57 % 0.0 in
11:49 -4.0 °F -11.3 °F 1008.7 in NE 11.1 mph 16.1 mph 57 % 0.0 in
11:55 -3.8 °F -11.5 °F 1008.4 in ENE 7.9 mph 14.5 mph 55 % 0.0 in
12:01 -3.7 °F -11.4 °F 1008.4 in NE 6.4 mph 17.7 mph 55 % 0.0 in
12:07 -3.4 °F -11.4 °F 1008.4 in ESE 6.4 mph 16.1 mph 54 % 0.0 in
12:13 -3.4 °F -11.6 °F 1008.4 in ENE 7.9 mph 27.4 mph 53 % 0.0 in
12:19 -3.2 °F -11.9 °F 1008.0 in NE 7.9 mph 22.5 mph 51 % 0.0 in
12:25 -3.2 °F -11.7 °F 1007.7 in NE 17.7 mph 24.1 mph 52 % 0.0 in
12:31 -3.2 °F -11.9 °F 1007.3 in ENE 11.1 mph 17.7 mph 51 % 0.0 in
12:37 -2.9 °F -11.6 °F 1007.3 in East 13.0 mph 22.5 mph 51 % 0.0 in
12:43 -2.9 °F -11.9 °F 1007.3 in NE 11.1 mph 29.0 mph 50 % 0.0 in
12:49 -2.7 °F -11.4 °F 1007.0 in ENE 16.3 mph 20.9 mph 51 % 0.0 in
12:55 -2.6 °F -11.3 °F 1007.0 in NE 6.4 mph 22.5 mph 51 % 0.0 in
13:01 -2.5 °F -11.5 °F 1006.7 in East 13.0 mph 19.3 mph 50 % 0.0 in
13:07 -2.6 °F -11.6 °F 1006.7 in NNE 17.7 mph 22.5 mph 50 % 0.0 in
13:13 -2.4 °F -11.2 °F 1006.7 in ENE 3.2 mph 17.7 mph 51 % 0.0 in
13:19 -2.1 °F -11.1 °F 1006.7 in East 4.7 mph 24.1 mph 50 % 0.0 in
13:25 -1.9 °F -10.9 °F 1006.7 in East 20.9 mph 20.9 mph 50 % 0.0 in
13:31 -1.9 °F -10.9 °F 1006.3 in NNW 13.0 mph 20.9 mph 50 % 0.0 in
13:37 -1.8 °F -10.9 °F 1006.3 in ENE 19.5 mph 22.5 mph 50 % 0.0 in
13:43 -1.7 °F -10.8 °F 1006.0 in ENE 13.0 mph 20.9 mph 50 % 0.0 in
13:49 -1.7 °F -10.8 °F 1006.0 in NE 16.3 mph 24.1 mph 50 % 0.0 in
13:55 -1.6 °F -10.7 °F 1006.0 in NE 19.5 mph 20.9 mph 50 % 0.0 in
14:01 -1.4 °F -10.2 °F 1005.6 in NE 11.1 mph 19.3 mph 51 % 0.0 in
14:07 -1.3 °F -10.6 °F 1005.6 in East 16.3 mph 25.7 mph 49 % 0.0 in
14:13 -1.3 °F -10.4 °F 1005.6 in NE 9.7 mph 24.1 mph 50 % 0.0 in
14:19 -1.1 °F -10.5 °F 1005.6 in NE 13.0 mph 27.4 mph 49 % 0.0 in
14:25 -1.0 °F -10.4 °F 1005.6 in ENE 11.1 mph 25.7 mph 49 % 0.0 in
14:31 -0.9 °F -10.5 °F 1005.6 in ENE 9.7 mph 22.5 mph 48 % 0.0 in
14:37 -0.8 °F -10.4 °F 1005.6 in ENE 20.9 mph 24.1 mph 48 % 0.0 in
14:43 -0.7 °F -10.4 °F 1005.6 in NE 16.3 mph 22.5 mph 48 % 0.0 in
14:49 -0.6 °F -10.5 °F 1005.3 in East 14.3 mph 24.1 mph 47 % 0.0 in
14:56 -0.6 °F -10.3 °F 1005.3 in ENE 11.1 mph 19.3 mph 48 % 0.0 in
15:02 -0.4 °F -10.3 °F 1005.0 in ENE 9.7 mph 19.3 mph 47 % 0.0 in
15:07 -0.4 °F -10.3 °F 1005.0 in NE 9.7 mph 27.4 mph 47 % 0.0 in
15:14 -0.3 °F -10.0 °F 1004.6 in East 14.3 mph 19.3 mph 48 % 0.0 in
15:20 -0.2 °F -9.9 °F 1004.6 in ENE 11.1 mph 14.5 mph 48 % 0.0 in
15:26 -0.2 °F -9.9 °F 1004.3 in ENE 6.4 mph 19.3 mph 48 % 0.0 in
15:32 -0.2 °F -9.9 °F 1004.3 in ENE 16.3 mph 32.2 mph 48 % 0.0 in
15:38 -0.3 °F -10.0 °F 1004.3 in NE 14.3 mph 22.5 mph 48 % 0.0 in
15:44 -0.3 °F -9.7 °F 1004.3 in NNE 16.3 mph 24.1 mph 49 % 0.0 in
15:50 -0.2 °F -9.6 °F 1004.3 in ENE 7.9 mph 17.7 mph 49 % 0.0 in
15:56 -0.2 °F -9.9 °F 1004.3 in NE 14.3 mph 25.7 mph 48 % 0.0 in
16:02 -0.2 °F -9.6 °F 1003.9 in NNE 7.9 mph 20.9 mph 49 % 0.0 in
16:08 -0.2 °F -9.6 °F 1003.9 in NNE 6.4 mph 24.1 mph 49 % 0.0 in
16:14 0.0 °F -9.2 °F 1003.6 in ENE 7.9 mph 11.3 mph 50 % 0.0 in
16:20 0.1 °F -9.4 °F 1003.3 in NE 6.4 mph 19.3 mph 49 % 0.0 in
16:26 0.0 °F -9.7 °F 1003.3 in NE 22.7 mph 30.6 mph 48 % 0.0 in
16:32 0.0 °F -9.4 °F 1003.3 in ENE 24.1 mph 24.1 mph 49 % 0.0 in
16:38 -0.1 °F -9.8 °F 1002.9 in NE 14.3 mph 25.7 mph 48 % 0.0 in
16:44 -0.2 °F -9.6 °F 1002.9 in ENE 14.3 mph 20.9 mph 49 % 0.0 in
16:50 -0.2 °F -9.6 °F 1002.9 in East 22.7 mph 29.0 mph 49 % 0.0 in
16:56 -0.2 °F -9.6 °F 1002.6 in East 20.9 mph 25.7 mph 49 % 0.0 in
17:02 -0.2 °F -9.6 °F 1002.6 in ENE 27.4 mph 29.0 mph 49 % 0.0 in
17:08 -0.2 °F -9.4 °F 1002.3 in ENE 20.9 mph 24.1 mph 50 % 0.0 in
17:14 -0.2 °F -9.1 °F 1002.3 in East 14.3 mph 25.7 mph 51 % 0.0 in
17:20 -0.2 °F -8.6 °F 1002.3 in East 19.5 mph 27.4 mph 53 % 0.0 in
17:26 -0.3 °F -7.8 °F 1002.3 in East 22.7 mph 29.0 mph 57 % 0.0 in
17:32 -0.4 °F -7.2 °F 1002.3 in East 11.1 mph 24.1 mph 60 % 0.0 in
17:38 -0.8 °F -6.4 °F 1002.3 in East 14.3 mph 24.1 mph 66 % 0.0 in
17:44 -1.3 °F -5.7 °F 1002.3 in ENE 7.9 mph 17.7 mph 72 % 0.0 in
17:50 -1.6 °F -5.4 °F 1002.3 in East 7.9 mph 17.7 mph 75 % 0.0 in
17:56 -1.8 °F -5.3 °F 1002.3 in ENE 16.3 mph 22.5 mph 77 % 0.0 in
18:02 -1.9 °F -5.1 °F 1002.6 in East 6.4 mph 16.1 mph 79 % 0.0 in
18:08 -1.9 °F -5.1 °F 1002.3 in East 4.7 mph 14.5 mph 79 % 0.0 in
18:14 -1.9 °F -4.9 °F 1001.9 in East 6.4 mph 14.5 mph 80 % 0.0 in
18:20 -2.1 °F -4.9 °F 1001.6 in ESE 9.7 mph 16.1 mph 81 % 0.0 in
18:26 -2.1 °F -4.8 °F 1001.6 in ENE 9.7 mph 19.3 mph 82 % 0.0 in
18:32 -2.2 °F -4.7 °F 1001.9 in ENE 14.3 mph 16.1 mph 83 % 0.0 in
18:38 -2.3 °F -4.5 °F 1001.9 in ENE 16.3 mph 17.7 mph 85 % 0.0 in
18:44 -2.3 °F -4.3 °F 1001.9 in ENE 13.0 mph 19.3 mph 86 % 0.0 in
18:50 -2.4 °F -4.4 °F 1001.9 in NE 6.4 mph 24.1 mph 86 % 0.0 in
18:56 -2.5 °F -4.4 °F 1001.9 in East 14.3 mph 30.6 mph 87 % 0.0 in
19:02 -2.6 °F -4.3 °F 1001.9 in ENE 14.3 mph 20.9 mph 88 % 0.0 in
19:08 -2.7 °F -4.4 °F 1001.6 in ENE 16.3 mph 20.9 mph 88 % 0.0 in
19:14 -2.7 °F -4.3 °F 1001.6 in ENE 3.2 mph 17.7 mph 89 % 0.0 in
19:20 -2.7 °F -4.4 °F 1001.2 in NE 4.7 mph 19.3 mph 88 % 0.0 in
19:26 -2.7 °F -4.4 °F 1001.2 in NNE 16.3 mph 17.7 mph 88 % 0.0 in
19:32 -2.8 °F -4.5 °F 1001.2 in ENE 4.7 mph 16.1 mph 88 % 0.0 in
19:38 -2.8 °F -4.5 °F 1001.2 in ENE 7.9 mph 25.7 mph 88 % 0.0 in
19:44 -2.9 °F -4.6 °F 1001.2 in NE 7.9 mph 19.3 mph 88 % 0.0 in
19:50 -2.9 °F -4.6 °F 1000.9 in ENE 17.7 mph 20.9 mph 88 % 0.0 in
19:56 -2.9 °F -4.6 °F 1000.9 in NE 9.7 mph 17.7 mph 88 % 0.0 in
20:02 -2.9 °F -4.6 °F 1000.9 in NE 17.7 mph 17.7 mph 88 % 0.0 in
20:08 -3.0 °F -4.7 °F 1000.6 in NE 7.9 mph 19.3 mph 88 % 0.0 in
20:14 -3.0 °F -4.6 °F 1000.6 in ENE 7.9 mph 20.9 mph 89 % 0.0 in
20:20 -3.0 °F -4.6 °F 1000.6 in ENE 4.7 mph 14.5 mph 89 % 0.0 in
20:26 -3.0 °F -4.6 °F 1000.6 in NE 9.7 mph 17.7 mph 89 % 0.0 in
20:32 -2.9 °F -4.5 °F 1000.2 in NE 14.3 mph 24.1 mph 89 % 0.0 in
20:38 -2.9 °F -4.5 °F 1000.2 in NE 14.3 mph 19.3 mph 89 % 0.0 in
20:44 -2.9 °F -4.5 °F 1000.2 in NE 17.7 mph 17.7 mph 89 % 0.0 in
20:50 -2.9 °F -4.5 °F 1000.2 in NE 3.2 mph 19.3 mph 89 % 0.0 in
20:56 -2.8 °F -4.4 °F 1000.2 in NE 7.9 mph 12.9 mph 89 % 0.0 in
21:02 -2.8 °F -4.4 °F 1000.2 in ENE 14.3 mph 16.1 mph 89 % 0.0 in
21:08 -2.8 °F -4.4 °F 1000.2 in NE 17.7 mph 17.7 mph 89 % 0.0 in
21:14 -2.8 °F -4.4 °F 999.9 in ENE 9.7 mph 20.9 mph 89 % 0.0 in
21:20 -2.7 °F -4.3 °F 999.9 in ENE 11.1 mph 20.9 mph 89 % 0.0 in
21:28 -2.7 °F -4.1 °F 999.9 in NE 7.9 mph 12.9 mph 90 % 0.0 in
21:34 -2.7 °F -4.1 °F 999.9 in ENE 11.1 mph 14.5 mph 90 % 0.0 in
21:40 -2.7 °F -4.1 °F 999.9 in ENE 3.2 mph 17.7 mph 90 % 0.0 in
21:46 -2.7 °F -4.0 °F 999.9 in NE 7.9 mph 11.3 mph 91 % 0.0 in
21:50 -2.6 °F -3.9 °F 999.9 in NNE 11.1 mph 19.3 mph 91 % 0.0 in
21:56 -2.6 °F -3.9 °F 999.9 in ENE 1.4 mph 16.1 mph 91 % 0.0 in
22:02 -2.6 °F -3.9 °F 999.5 in East 19.5 mph 19.5 mph 91 % 0.0 in
22:08 -2.6 °F -3.7 °F 999.5 in ENE 7.9 mph 12.9 mph 92 % 0.0 in
22:20 -2.6 °F -3.7 °F 999.2 in NNE 3.2 mph 12.9 mph 92 % 0.0 in
22:26 -2.6 °F -3.7 °F 999.2 in NE 9.7 mph 14.5 mph 92 % 0.0 in
22:32 -2.5 °F -3.6 °F 999.2 in ENE 7.9 mph 17.7 mph 92 % 0.0 in
22:38 -2.5 °F -3.6 °F 999.2 in ENE 7.9 mph 14.5 mph 92 % 0.0 in
22:44 -2.5 °F -3.6 °F 999.2 in NE 6.4 mph 11.3 mph 92 % 0.0 in
22:50 -2.4 °F -3.5 °F 998.9 in NNE 3.2 mph 16.1 mph 92 % 0.0 in
22:56 -2.4 °F -3.5 °F 998.9 in NE 7.9 mph 14.5 mph 92 % 0.0 in
23:02 -2.4 °F -3.5 °F 998.9 in ENE 4.7 mph 12.9 mph 92 % 0.0 in
23:08 -2.4 °F -3.7 °F 998.5 in NE 11.1 mph 17.7 mph 91 % 0.0 in
23:14 -2.3 °F -3.6 °F 998.5 in East 1.4 mph 17.7 mph 91 % 0.0 in
23:20 -2.3 °F -3.6 °F 998.5 in ENE 1.4 mph 11.3 mph 91 % 0.0 in
23:26 -2.3 °F -3.6 °F 998.5 in NE 7.9 mph 16.1 mph 91 % 0.0 in
23:32 -2.3 °F -3.6 °F 998.5 in ENE 1.4 mph 12.9 mph 91 % 0.0 in
23:38 -2.3 °F -3.6 °F 998.2 in Calm   12.9 mph 91 % 0.0 in
23:44 -2.3 °F -3.4 °F 998.2 in NE 3.2 mph 12.9 mph 92 % 0.0 in
23:50 -2.3 °F -3.4 °F 998.2 in NE 6.4 mph 14.5 mph 92 % 0.0 in
23:56 -2.3 °F -3.4 °F 997.9 in NNE 11.1 mph 12.9 mph 92 % 0.0 in
Meteo18
Compliments of Weather Underground - 4 mb

Script developed by  Jim McMurry - jmcmurry@mwt.net Adapted for the template by  Wim van der Kuil - Leuven-Template.eu

You find our weather info also at:

European Weather Network

Weather Underground

Equipment we use:

Weather-station
Davis Vue

Weather-program
Meteobridge

Weather-server
Raspberry PI 2 B+

Provider
1 and 1

Davis Vue

Meteobridge

Raspberry PI 2 B+

1 and 1